createdAt,value
2022-12-05T00:01:21.763Z,3.89
2022-12-05T00:03:50.134Z,3.87
2022-12-05T00:06:17.504Z,3.83
2022-12-05T00:08:44.842Z,3.79
2022-12-05T00:11:13.593Z,3.75
2022-12-05T00:13:41.037Z,3.76
2022-12-05T00:16:12.192Z,3.86
2022-12-05T00:18:39.100Z,3.80
2022-12-05T00:21:06.881Z,3.80
2022-12-05T00:23:33.749Z,3.82
2022-12-05T00:26:04.789Z,3.81
2022-12-05T00:28:32.394Z,3.88
2022-12-05T00:31:03.608Z,3.73
2022-12-05T00:33:30.064Z,3.77
2022-12-05T00:36:01.861Z,3.88
2022-12-05T00:38:28.339Z,3.78
2022-12-05T00:40:54.793Z,3.84
2022-12-05T00:43:21.182Z,3.69
2022-12-05T00:45:47.592Z,3.60
2022-12-05T00:48:14.131Z,3.63
2022-12-05T00:50:40.598Z,3.56
2022-12-05T00:53:07.003Z,3.69
2022-12-05T00:55:37.386Z,3.79
2022-12-05T00:58:03.836Z,3.78
2022-12-05T01:00:30.458Z,3.75
2022-12-05T01:02:56.928Z,3.71
2022-12-05T01:05:23.403Z,3.72
2022-12-05T01:07:49.896Z,3.73
2022-12-05T01:10:16.528Z,3.77
2022-12-05T01:12:42.932Z,3.75
2022-12-05T01:15:10.050Z,3.81
2022-12-05T01:17:36.454Z,3.76
2022-12-05T01:20:03.213Z,3.63
2022-12-05T01:22:29.623Z,3.73
2022-12-05T01:24:56.065Z,3.69
2022-12-05T01:27:22.543Z,3.72
2022-12-05T01:29:49.079Z,3.80
2022-12-05T01:32:15.587Z,3.75
2022-12-05T01:34:42.118Z,3.75
2022-12-05T01:37:08.586Z,3.76
2022-12-05T01:39:35.064Z,3.74
2022-12-05T01:42:01.592Z,3.78
2022-12-05T01:44:28.064Z,3.87
2022-12-05T01:46:55.761Z,3.84
2022-12-05T01:49:37.446Z,3.80
2022-12-05T01:52:13.342Z,3.83
2022-12-05T01:54:40.765Z,3.77
2022-12-05T01:57:10.590Z,3.64
2022-12-05T01:59:41.698Z,3.74
2022-12-05T02:02:08.826Z,3.67
2022-12-05T02:04:42.051Z,3.70
2022-12-05T02:07:08.507Z,3.63
2022-12-05T02:09:36.499Z,3.62
2022-12-05T02:12:04.282Z,3.62
2022-12-05T02:15:01.300Z,3.70
2022-12-05T02:17:51.125Z,3.73
2022-12-05T02:20:46.731Z,3.74
2022-12-05T02:23:27.541Z,3.76
2022-12-05T02:26:12.840Z,3.73
2022-12-05T02:29:09.603Z,3.64
2022-12-05T02:31:56.421Z,3.70
2022-12-05T02:34:35.144Z,3.67
2022-12-05T02:37:14.779Z,3.64
2022-12-05T02:39:43.902Z,3.67
2022-12-05T02:42:19.837Z,3.64
2022-12-05T02:44:56.506Z,3.60
2022-12-05T02:47:27.467Z,3.56
2022-12-05T02:49:55.219Z,3.61
2022-12-05T02:52:24.202Z,3.69
2022-12-05T02:54:53.419Z,3.71
2022-12-05T02:57:21.550Z,3.79
2022-12-05T02:59:48.115Z,3.80
2022-12-05T03:02:41.276Z,3.75
2022-12-05T03:05:39.983Z,3.80
2022-12-05T03:08:10.639Z,3.82
2022-12-05T03:10:40.463Z,3.67
2022-12-05T03:13:16.970Z,3.75
2022-12-05T03:15:51.958Z,3.72
2022-12-05T03:18:25.941Z,3.71
2022-12-05T03:21:02.293Z,3.78
2022-12-05T03:23:34.662Z,3.87
2022-12-05T03:26:25.930Z,3.86
2022-12-05T03:29:12.296Z,3.86
2022-12-05T03:31:49.902Z,3.88
2022-12-05T03:34:27.533Z,3.85
2022-12-05T03:36:54.605Z,3.91
2022-12-05T03:39:31.882Z,3.91
2022-12-05T03:42:03.908Z,3.95
2022-12-05T03:44:53.222Z,4.05
2022-12-05T03:47:41.098Z,4.03
2022-12-05T03:50:25.575Z,4.05
2022-12-05T03:53:19.234Z,4.13
2022-12-05T03:55:47.255Z,4.16
2022-12-05T03:58:52.160Z,4.17
2022-12-05T04:01:22.771Z,4.13
2022-12-05T04:03:57.965Z,4.18
2022-12-05T04:06:35.362Z,4.24
2022-12-05T04:09:16.908Z,4.30
2022-12-05T04:11:50.994Z,4.15
2022-12-05T04:14:30.487Z,4.26
2022-12-05T04:17:05.467Z,4.21
2022-12-05T04:20:03.268Z,4.28
2022-12-05T04:22:30.247Z,4.30
2022-12-05T04:25:18.426Z,4.29
2022-12-05T04:27:50.698Z,4.25
2022-12-05T04:30:26.349Z,4.28
2022-12-05T04:33:04.694Z,4.30
2022-12-05T04:35:36.870Z,4.32
2022-12-05T04:38:15.333Z,4.33
2022-12-05T04:40:53.196Z,4.28
2022-12-05T04:43:21.453Z,4.25
2022-12-05T04:45:51.016Z,4.30
2022-12-05T04:48:19.380Z,4.28
2022-12-05T04:50:49.192Z,4.20
2022-12-05T04:53:17.364Z,4.22
2022-12-05T04:55:49.346Z,4.20
2022-12-05T04:58:19.589Z,4.25
2022-12-05T05:01:04.676Z,4.19
2022-12-05T05:03:38.382Z,4.19
2022-12-05T05:06:05.200Z,4.20
2022-12-05T05:08:31.666Z,4.23
2022-12-05T05:11:06.822Z,4.22
2022-12-05T05:13:33.325Z,4.25
2022-12-05T05:15:59.829Z,4.30
2022-12-05T05:18:26.400Z,4.26
2022-12-05T05:20:52.868Z,4.38
2022-12-05T05:23:19.314Z,4.29
2022-12-05T05:25:45.933Z,4.26
2022-12-05T05:28:12.367Z,4.26
2022-12-05T05:30:38.785Z,4.28
2022-12-05T05:33:05.264Z,4.23
2022-12-05T05:35:31.699Z,4.22
2022-12-05T05:37:58.088Z,4.25
2022-12-05T05:40:24.515Z,4.22
2022-12-05T05:42:51.163Z,4.20
2022-12-05T05:45:18.176Z,4.33
2022-12-05T05:47:44.908Z,4.36
2022-12-05T05:50:16.256Z,4.31
2022-12-05T05:52:46.154Z,4.28
2022-12-05T05:55:12.584Z,4.20
2022-12-05T05:57:39.036Z,4.28
2022-12-05T06:00:07.225Z,4.33
2022-12-05T06:02:35.172Z,4.40
2022-12-05T06:05:01.889Z,4.43
2022-12-05T06:07:29.076Z,4.41
2022-12-05T06:09:55.858Z,4.39
2022-12-05T06:12:22.969Z,4.33
2022-12-05T06:14:50.061Z,4.32
2022-12-05T06:17:16.834Z,4.33
2022-12-05T06:19:43.374Z,4.32
2022-12-05T06:22:09.807Z,4.37
2022-12-05T06:24:36.426Z,4.34
2022-12-05T06:27:02.867Z,4.34
2022-12-05T06:29:33.604Z,4.29
2022-12-05T06:32:00.946Z,4.28
2022-12-05T06:34:27.459Z,4.34
2022-12-05T06:36:53.855Z,4.34
2022-12-05T06:39:20.402Z,4.27
2022-12-05T06:41:47.013Z,4.25
2022-12-05T06:44:13.501Z,4.29
2022-12-05T06:46:39.952Z,4.30
2022-12-05T06:49:06.494Z,4.35
2022-12-05T06:51:32.934Z,4.26
2022-12-05T06:53:59.429Z,4.28
2022-12-05T06:56:25.981Z,4.38
2022-12-05T06:58:55.543Z,4.69
2022-12-05T07:01:40.815Z,4.58
2022-12-05T07:04:11.130Z,4.57
2022-12-05T07:06:37.813Z,4.63
2022-12-05T07:09:06.279Z,4.55
2022-12-05T07:11:33.466Z,4.52
2022-12-05T07:13:59.920Z,4.49
2022-12-05T07:16:26.460Z,4.46
2022-12-05T07:18:53.068Z,4.48
2022-12-05T07:21:21.605Z,4.66
2022-12-05T07:23:50.233Z,5.24
2022-12-05T07:26:22.011Z,5.23
2022-12-05T07:28:49.591Z,5.15
2022-12-05T07:31:20.678Z,5.16
2022-12-05T07:33:47.163Z,5.07
2022-12-05T07:36:16.731Z,5.00
2022-12-05T07:38:44.000Z,4.95
2022-12-05T07:41:23.216Z,4.93
2022-12-05T07:43:54.355Z,4.84
2022-12-05T07:46:21.713Z,4.94
2022-12-05T07:48:49.211Z,4.85
2022-12-05T07:51:16.020Z,4.83
2022-12-05T07:53:43.742Z,4.88
2022-12-05T07:56:14.502Z,4.80
2022-12-05T07:58:40.921Z,4.79
2022-12-05T08:01:08.836Z,4.89
2022-12-05T08:03:37.412Z,4.92
2022-12-05T08:06:05.948Z,5.03
2022-12-05T08:08:32.938Z,5.08
2022-12-05T08:11:12.024Z,5.29
2022-12-05T08:13:38.823Z,5.30
2022-12-05T08:16:08.605Z,5.28
2022-12-05T08:18:35.634Z,5.40
2022-12-05T08:21:04.005Z,5.77
2022-12-05T08:23:31.793Z,5.93
2022-12-05T08:26:03.569Z,5.92
2022-12-05T08:28:30.581Z,5.80
2022-12-05T08:31:02.420Z,5.78
2022-12-05T08:33:29.260Z,5.82
2022-12-05T08:35:55.714Z,5.79
2022-12-05T08:38:23.359Z,5.71
2022-12-05T08:40:49.751Z,5.54
2022-12-05T08:43:16.158Z,5.41
2022-12-05T08:45:49.914Z,5.42
2022-12-05T08:48:16.428Z,5.41
2022-12-05T08:50:42.886Z,5.35
2022-12-05T08:53:09.372Z,5.39
2022-12-05T08:55:38.764Z,5.46
2022-12-05T08:58:05.616Z,5.39
2022-12-05T09:00:32.100Z,5.40
2022-12-05T09:02:59.062Z,5.38
2022-12-05T09:05:29.065Z,5.43
2022-12-05T09:07:56.122Z,5.28
2022-12-05T09:10:22.846Z,5.34
2022-12-05T09:12:51.289Z,5.26
2022-12-05T09:15:18.201Z,5.20
2022-12-05T09:17:45.086Z,5.40
2022-12-05T09:20:13.821Z,5.33
2022-12-05T09:22:41.394Z,5.47
2022-12-05T09:25:09.026Z,5.57
2022-12-05T09:27:35.553Z,5.63
2022-12-05T09:30:02.323Z,5.76
2022-12-05T09:32:29.071Z,5.84
2022-12-05T09:34:55.734Z,5.92
2022-12-05T09:37:38.512Z,5.91
2022-12-05T09:40:06.742Z,5.93
2022-12-05T09:42:43.968Z,5.96
2022-12-05T09:45:28.898Z,6.04
2022-12-05T09:48:07.057Z,6.03
2022-12-05T09:50:48.259Z,6.04
2022-12-05T09:53:27.417Z,5.96
2022-12-05T09:56:06.113Z,6.03
2022-12-05T09:58:57.114Z,6.16
2022-12-05T10:02:01.924Z,6.32
2022-12-05T10:04:35.026Z,6.42
2022-12-05T10:07:17.805Z,6.54
2022-12-05T10:10:20.000Z,6.65
2022-12-05T10:13:05.376Z,6.72
2022-12-05T10:15:38.167Z,6.75
2022-12-05T10:18:11.046Z,6.83
2022-12-05T10:20:40.511Z,6.79
2022-12-05T10:23:55.621Z,6.82
2022-12-05T10:26:13.310Z,6.90
2022-12-05T10:29:06.985Z,6.97
2022-12-05T10:31:37.588Z,7.11
2022-12-05T10:34:23.338Z,7.39
2022-12-05T10:37:09.545Z,7.60
2022-12-05T10:39:37.282Z,7.43
2022-12-05T10:42:05.230Z,7.35
2022-12-05T10:44:33.411Z,7.76
2022-12-05T10:47:00.055Z,8.38
2022-12-05T10:49:28.052Z,8.73
2022-12-05T10:51:54.496Z,9.05
2022-12-05T10:54:24.889Z,9.05
2022-12-05T10:56:53.312Z,8.50
2022-12-05T10:59:46.790Z,8.56
2022-12-05T11:02:23.268Z,8.25
2022-12-05T11:04:50.836Z,8.60
2022-12-05T11:07:43.783Z,8.73
2022-12-05T11:10:34.458Z,8.69
2022-12-05T11:13:02.163Z,8.81
2022-12-05T11:15:30.811Z,9.27
2022-12-05T11:18:16.965Z,10.70
2022-12-05T11:20:43.498Z,11.65
2022-12-05T11:23:23.282Z,11.88
2022-12-05T11:25:50.982Z,11.50
2022-12-05T11:28:17.459Z,10.69
2022-12-05T11:31:23.008Z,11.28
2022-12-05T11:34:02.350Z,11.48
2022-12-05T11:36:43.708Z,11.21
2022-12-05T11:39:13.125Z,10.87
2022-12-05T11:41:47.665Z,10.87
2022-12-05T11:44:32.567Z,11.71
2022-12-05T11:47:11.176Z,11.92
2022-12-05T11:49:53.862Z,12.05
2022-12-05T11:52:22.971Z,11.65
2022-12-05T11:55:04.915Z,12.10
2022-12-05T11:57:51.986Z,12.32
2022-12-05T12:00:49.973Z,12.36
2022-12-05T12:03:34.163Z,12.40
2022-12-05T12:06:43.780Z,11.90
2022-12-05T12:09:25.379Z,12.42
2022-12-05T12:11:51.818Z,12.76
2022-12-05T12:14:47.330Z,13.56
2022-12-05T12:17:31.365Z,14.06
2022-12-05T12:20:19.137Z,14.32
2022-12-05T12:23:05.688Z,13.51
2022-12-05T12:26:09.068Z,13.94
2022-12-05T12:28:52.713Z,14.16
2022-12-05T12:31:34.247Z,13.70
2022-12-05T12:34:19.491Z,14.11
2022-12-05T12:36:53.505Z,14.31
2022-12-05T12:40:03.611Z,14.02
2022-12-05T12:42:50.244Z,13.14
2022-12-05T12:45:35.793Z,12.36
2022-12-05T12:48:10.520Z,11.93
2022-12-05T12:50:44.015Z,11.58
2022-12-05T12:53:19.863Z,11.37
2022-12-05T12:56:20.583Z,10.99
2022-12-05T12:58:54.090Z,11.25
2022-12-05T13:01:26.520Z,11.77
2022-12-05T13:04:02.534Z,11.98
2022-12-05T13:06:43.108Z,12.29
2022-12-05T13:09:18.192Z,12.58
2022-12-05T13:11:46.797Z,12.56
2022-12-05T13:14:17.796Z,12.77
2022-12-05T13:16:50.365Z,12.36
2022-12-05T13:19:37.954Z,11.92
2022-12-05T13:22:06.662Z,11.11
2022-12-05T13:24:33.520Z,10.84
2022-12-05T13:27:02.795Z,10.65
2022-12-05T13:29:34.358Z,10.50
2022-12-05T13:32:04.250Z,10.51
2022-12-05T13:34:45.958Z,10.34
2022-12-05T13:37:44.477Z,10.22
2022-12-05T13:40:46.469Z,10.09
2022-12-05T13:43:16.439Z,9.82
2022-12-05T13:45:58.858Z,9.74
2022-12-05T13:48:26.915Z,9.51
2022-12-05T13:51:22.719Z,9.58
2022-12-05T13:53:58.105Z,9.65
2022-12-05T13:56:58.972Z,9.55
2022-12-05T14:00:01.340Z,9.57
2022-12-05T14:02:46.956Z,9.45
2022-12-05T14:05:19.428Z,9.32
2022-12-05T14:07:48.158Z,9.25
2022-12-05T14:10:28.235Z,9.12
2022-12-05T14:13:24.024Z,9.02
2022-12-05T14:15:51.682Z,8.99
2022-12-05T14:18:54.601Z,8.93
2022-12-05T14:21:49.117Z,8.72
2022-12-05T14:24:36.966Z,8.65
2022-12-05T14:27:21.356Z,8.57
2022-12-05T14:30:06.529Z,8.45
2022-12-05T14:32:42.607Z,8.44
2022-12-05T14:35:15.162Z,8.40
2022-12-05T14:37:57.754Z,8.41
2022-12-05T14:40:32.389Z,8.45
2022-12-05T14:43:31.234Z,8.35
2022-12-05T14:46:08.221Z,8.33
2022-12-05T14:48:48.272Z,8.24
2022-12-05T14:51:38.190Z,8.18
2022-12-05T14:54:10.459Z,8.09
2022-12-05T14:56:42.645Z,8.09
2022-12-05T14:59:27.278Z,8.08
2022-12-05T15:02:00.852Z,7.97
2022-12-05T15:04:44.291Z,7.84
2022-12-05T15:07:16.850Z,7.79
2022-12-05T15:10:04.997Z,7.71
2022-12-05T15:12:51.667Z,7.72
2022-12-05T15:15:39.358Z,7.68
2022-12-05T15:18:24.239Z,7.65
2022-12-05T15:20:50.598Z,7.63
2022-12-05T15:23:49.187Z,7.50
2022-12-05T15:29:10.465Z,7.49
2022-12-05T15:31:44.516Z,7.49
2022-12-05T15:34:31.946Z,7.45
2022-12-05T15:37:05.010Z,7.46
2022-12-05T15:40:09.855Z,7.45
2022-12-05T15:42:41.321Z,7.43
2022-12-05T15:45:13.639Z,7.30
2022-12-05T15:47:45.323Z,7.22
2022-12-05T15:50:17.191Z,7.14
2022-12-05T15:52:51.346Z,7.17
2022-12-05T15:55:25.956Z,7.09
2022-12-05T15:58:25.003Z,7.09
2022-12-05T16:01:01.134Z,7.03
2022-12-05T16:03:46.053Z,7.05
2022-12-05T16:06:26.837Z,7.04
2022-12-05T16:08:54.201Z,6.99
2022-12-05T16:11:20.908Z,7.02
2022-12-05T16:13:56.213Z,6.93
2022-12-05T16:16:25.828Z,6.86
2022-12-05T16:18:58.360Z,6.90
2022-12-05T16:21:38.975Z,6.91
2022-12-05T16:24:15.896Z,7.05
2022-12-05T16:26:42.705Z,6.96
2022-12-05T16:29:28.275Z,6.90
2022-12-05T16:32:00.273Z,6.84
2022-12-05T16:34:29.151Z,6.80
2022-12-05T16:36:56.900Z,6.78
2022-12-05T16:39:25.774Z,6.73
2022-12-05T16:41:52.746Z,6.72
2022-12-05T16:44:31.800Z,6.73
2022-12-05T16:46:58.795Z,6.66
2022-12-05T16:49:38.819Z,6.67
2022-12-05T16:52:09.158Z,6.70
2022-12-05T16:54:35.729Z,6.68
2022-12-05T16:57:02.852Z,6.65
2022-12-05T16:59:36.591Z,6.70
2022-12-05T17:02:05.584Z,6.62
2022-12-05T17:04:32.133Z,6.44
2022-12-05T17:06:58.925Z,6.51
2022-12-05T17:09:25.365Z,6.53
2022-12-05T17:11:57.118Z,6.54
2022-12-05T17:14:23.883Z,6.49
2022-12-05T17:16:50.371Z,6.45
2022-12-05T17:19:16.899Z,6.52
2022-12-05T17:21:43.697Z,6.55
2022-12-05T17:24:17.304Z,6.78
2022-12-05T17:26:44.629Z,7.17
2022-12-05T17:29:11.616Z,7.21
2022-12-05T17:31:38.235Z,6.81
2022-12-05T17:34:13.824Z,6.50
2022-12-05T17:36:40.237Z,6.44
2022-12-05T17:39:06.644Z,6.40
2022-12-05T17:41:33.067Z,6.32
2022-12-05T17:43:59.502Z,6.22
2022-12-05T17:46:25.934Z,6.14
2022-12-05T17:48:52.589Z,6.18
2022-12-05T17:51:20.174Z,6.05
2022-12-05T17:53:47.522Z,6.07
2022-12-05T17:56:14.279Z,6.06
2022-12-05T17:58:41.285Z,6.09
2022-12-05T18:01:14.218Z,6.03
2022-12-05T18:03:40.725Z,6.05
2022-12-05T18:06:07.550Z,6.02
2022-12-05T18:08:34.187Z,5.93
2022-12-05T18:11:00.621Z,5.86
2022-12-05T18:13:27.023Z,5.81
2022-12-05T18:15:58.012Z,5.67
2022-12-05T18:18:27.355Z,5.72
2022-12-05T18:20:53.903Z,5.71
2022-12-05T18:23:20.472Z,5.71
2022-12-05T18:25:57.074Z,5.67
2022-12-05T18:28:23.609Z,5.74
2022-12-05T18:30:50.085Z,5.68
2022-12-05T18:33:16.504Z,5.59
2022-12-05T18:35:43.004Z,5.47
2022-12-05T18:38:12.819Z,5.49
2022-12-05T18:40:39.355Z,5.58
2022-12-05T18:43:06.138Z,5.53
2022-12-05T18:45:32.782Z,5.54
2022-12-05T18:48:09.796Z,5.61
2022-12-05T18:50:45.805Z,5.59
2022-12-05T18:53:12.257Z,5.71
2022-12-05T18:56:04.785Z,5.66
2022-12-05T18:58:25.028Z,5.56
2022-12-05T19:00:51.468Z,5.56
2022-12-05T19:03:18.041Z,5.58
2022-12-05T19:05:44.441Z,5.63
2022-12-05T19:08:10.933Z,5.55
2022-12-05T19:10:37.520Z,5.57
2022-12-05T19:13:04.025Z,5.65
2022-12-05T19:15:30.504Z,5.63
2022-12-05T19:17:56.906Z,5.67
2022-12-05T19:20:23.304Z,5.60
2022-12-05T19:22:49.744Z,5.65
2022-12-05T19:25:16.297Z,5.66
2022-12-05T19:27:42.723Z,5.55
2022-12-05T19:30:10.118Z,5.57
2022-12-05T19:32:40.310Z,5.52
2022-12-05T19:35:07.796Z,5.61
2022-12-05T19:37:34.399Z,5.57
2022-12-05T19:40:01.094Z,5.56
2022-12-05T19:42:29.394Z,5.53
2022-12-05T19:44:55.897Z,5.55
2022-12-05T19:47:22.474Z,5.78
2022-12-05T19:49:49.248Z,5.74
2022-12-05T19:52:18.027Z,5.78
2022-12-05T19:54:45.104Z,5.72
2022-12-05T19:57:12.118Z,5.79
2022-12-05T19:59:38.550Z,5.66
2022-12-05T20:02:05.044Z,5.61
2022-12-05T20:04:31.557Z,5.58
2022-12-05T20:06:57.959Z,5.54
2022-12-05T20:09:24.417Z,5.51
2022-12-05T20:11:55.095Z,5.52
2022-12-05T20:14:24.288Z,6.02
2022-12-05T20:16:50.948Z,5.84
2022-12-05T20:19:17.587Z,5.89
2022-12-05T20:21:44.513Z,5.87
2022-12-05T20:24:11.549Z,5.73
2022-12-05T20:26:41.205Z,5.57
2022-12-05T20:29:08.533Z,5.68
2022-12-05T20:31:41.098Z,5.69
2022-12-05T20:34:11.339Z,5.73
2022-12-05T20:36:37.827Z,5.60
2022-12-05T20:39:11.093Z,5.56
2022-12-05T20:41:37.664Z,5.45
2022-12-05T20:44:06.411Z,5.39
2022-12-05T20:46:33.309Z,5.36
2022-12-05T20:49:00.289Z,5.30
2022-12-05T20:51:29.834Z,5.28
2022-12-05T20:53:58.098Z,5.27
2022-12-05T20:56:29.562Z,5.35
2022-12-05T20:58:58.542Z,5.37
2022-12-05T21:01:26.888Z,5.31
2022-12-05T21:03:54.336Z,5.26
2022-12-05T21:06:32.202Z,5.23
2022-12-05T21:09:00.042Z,5.19
2022-12-05T21:11:28.127Z,5.12
2022-12-05T21:13:56.022Z,5.26
2022-12-05T21:16:23.383Z,5.21
2022-12-05T21:18:51.063Z,5.09
2022-12-05T21:21:20.790Z,5.14
2022-12-05T21:23:53.100Z,5.18
2022-12-05T21:26:20.788Z,5.16
2022-12-05T21:28:47.596Z,5.12
2022-12-05T21:31:20.191Z,5.11
2022-12-05T21:33:49.437Z,5.14
2022-12-05T21:36:16.369Z,5.09
2022-12-05T21:38:43.041Z,5.19
2022-12-05T21:41:09.472Z,5.11
2022-12-05T21:43:36.661Z,5.16
2022-12-05T21:46:03.880Z,5.14
2022-12-05T21:48:31.110Z,5.12
2022-12-05T21:50:57.732Z,5.12
2022-12-05T21:53:24.532Z,5.14
2022-12-05T21:56:11.519Z,5.04
2022-12-05T21:58:42.318Z,5.02
2022-12-05T22:01:10.806Z,4.91
2022-12-05T22:03:37.671Z,4.90
2022-12-05T22:06:06.919Z,4.87
2022-12-05T22:08:34.181Z,4.85
2022-12-05T22:11:15.936Z,4.90
2022-12-05T22:13:44.211Z,4.86
2022-12-05T22:16:12.160Z,4.81
2022-12-05T22:18:39.041Z,4.93
2022-12-05T22:21:12.831Z,4.85
2022-12-05T22:23:39.284Z,4.87
2022-12-05T22:26:08.231Z,4.75
2022-12-05T22:28:35.654Z,4.88
2022-12-05T22:31:04.485Z,4.85
2022-12-05T22:33:31.723Z,4.87
2022-12-05T22:36:00.074Z,4.83
2022-12-05T22:38:28.934Z,4.70
2022-12-05T22:41:11.034Z,4.70
2022-12-05T22:43:37.955Z,4.53
2022-12-05T22:46:10.723Z,4.49
2022-12-05T22:48:37.468Z,4.32
2022-12-05T22:51:06.297Z,4.44
2022-12-05T22:53:32.959Z,4.40
2022-12-05T22:56:16.413Z,4.17
2022-12-05T22:58:44.527Z,4.11
2022-12-05T23:01:16.880Z,4.12
2022-12-05T23:03:45.688Z,3.92
2022-12-05T23:06:13.952Z,3.88
2022-12-05T23:08:41.778Z,3.90
2022-12-05T23:11:10.198Z,3.93
2022-12-05T23:13:38.349Z,3.72
2022-12-05T23:16:10.071Z,3.81
2022-12-05T23:18:46.804Z,3.67
2022-12-05T23:21:23.730Z,3.66
2022-12-05T23:23:52.868Z,3.61
2022-12-05T23:26:22.233Z,3.75
2022-12-05T23:28:49.179Z,3.76
2022-12-05T23:31:16.413Z,3.71
2022-12-05T23:33:43.193Z,3.50
2022-12-05T23:36:11.121Z,3.33
2022-12-05T23:38:38.822Z,3.30
2022-12-05T23:41:12.580Z,3.46
2022-12-05T23:43:39.566Z,3.33
2022-12-05T23:46:06.522Z,3.20
2022-12-05T23:48:33.591Z,3.13
2022-12-05T23:51:27.965Z,3.11
2022-12-05T23:53:58.315Z,3.10
2022-12-05T23:56:27.854Z,3.02
2022-12-05T23:58:55.412Z,2.92
